createdAt,value
2017-07-07T00:07:36.713Z,18.1
2017-07-07T00:17:51.860Z,17.9
2017-07-07T00:28:07.427Z,17.9
2017-07-07T00:38:22.403Z,17.9
2017-07-07T00:48:37.768Z,17.8
2017-07-07T00:58:51.775Z,17.7
2017-07-07T01:09:05.499Z,17.7
2017-07-07T01:19:20.944Z,17.6
2017-07-07T01:29:34.795Z,17.6
2017-07-07T01:39:48.811Z,17.7
2017-07-07T01:50:03.344Z,17.8
2017-07-07T02:00:18.824Z,17.7
2017-07-07T02:10:32.616Z,17.7
2017-07-07T02:20:47.692Z,17.7
2017-07-07T02:31:02.784Z,17.7
2017-07-07T02:41:17.419Z,17.7
2017-07-07T02:51:31.823Z,17.8
2017-07-07T03:01:46.579Z,17.9
2017-07-07T03:12:01.370Z,17.9
2017-07-07T03:22:15.174Z,17.8
2017-07-07T03:32:29.179Z,17.8
2017-07-07T03:42:44.802Z,17.8
2017-07-07T03:52:58.806Z,17.9
2017-07-07T04:03:12.562Z,18.2
2017-07-07T04:13:27.187Z,18
2017-07-07T04:23:41.812Z,17.8
2017-07-07T04:33:57.513Z,17.8
2017-07-07T04:44:11.928Z,17.9
2017-07-07T04:54:25.780Z,18.2
2017-07-07T05:04:40.520Z,18.3
2017-07-07T05:14:55.661Z,18.6
2017-07-07T05:25:10.874Z,18.8
2017-07-07T05:35:25.248Z,19.1
2017-07-07T05:45:40.094Z,18.9
2017-07-07T05:55:54.781Z,19
2017-07-07T06:06:08.610Z,19.1
2017-07-07T06:16:24.626Z,20
2017-07-07T06:26:39.212Z,21.1
2017-07-07T06:36:53.600Z,22.5
2017-07-07T06:47:09.015Z,22.6
2017-07-07T06:57:24.268Z,23.5
2017-07-07T07:07:38.503Z,23.5
2017-07-07T07:17:53.183Z,22.8
2017-07-07T07:28:08.534Z,23.8
2017-07-07T07:38:24.328Z,24
2017-07-07T07:48:39.750Z,24.8
2017-07-07T07:58:54.078Z,25.2
2017-07-07T08:09:09.974Z,25.3
2017-07-07T08:19:24.337Z,24.9
2017-07-07T08:29:40.294Z,25.3
2017-07-07T08:39:56.088Z,24.9
2017-07-07T08:50:10.394Z,26.3
2017-07-07T09:00:26.124Z,26
2017-07-07T09:10:41.353Z,27
2017-07-07T09:20:56.382Z,27.4
2017-07-07T09:31:11.283Z,25.8
2017-07-07T09:41:26.282Z,27.1
2017-07-07T09:51:41.495Z,27.3
2017-07-07T10:01:56.779Z,29.1
2017-07-07T10:12:11.309Z,26.1
2017-07-07T10:22:26.885Z,26.1
2017-07-07T10:32:41.832Z,27.4
2017-07-07T10:42:56.076Z,27.3
2017-07-07T10:53:10.133Z,28.4
2017-07-07T11:03:25.685Z,28.3
2017-07-07T11:13:40.578Z,27.2
2017-07-07T11:23:55.297Z,27.3
2017-07-07T11:34:09.645Z,29.4
2017-07-07T11:44:23.926Z,28.2
2017-07-07T11:54:39.078Z,28.9
2017-07-07T12:04:53.300Z,28.5
2017-07-07T12:15:08.679Z,29.4
2017-07-07T12:25:22.897Z,28.8
2017-07-07T12:35:37.815Z,29.9
2017-07-07T12:45:51.839Z,29.3
2017-07-07T12:56:07.143Z,29.4
2017-07-07T13:06:22.548Z,29.9
2017-07-07T13:16:37.900Z,30.2
2017-07-07T13:26:53.560Z,30.4
2017-07-07T13:37:08.521Z,29.7
2017-07-07T13:47:24.190Z,28
2017-07-07T13:57:38.655Z,28.3
2017-07-07T14:07:54.479Z,29.5
2017-07-07T14:18:09.846Z,29.4
2017-07-07T14:28:24.562Z,30.6
2017-07-07T14:38:39.409Z,27.9
2017-07-07T14:48:55.163Z,27.5
2017-07-07T14:59:09.842Z,27
2017-07-07T15:09:25.265Z,26.7
2017-07-07T15:19:41.001Z,26.5
2017-07-07T15:29:55.303Z,26.5
2017-07-07T15:40:10.169Z,27.1
2017-07-07T15:50:23.606Z,27.8
2017-07-07T16:00:38.813Z,27.7
2017-07-07T16:10:53.914Z,27.8
2017-07-07T16:21:08.160Z,27.9
2017-07-07T16:31:23.154Z,27
2017-07-07T16:41:37.171Z,26.7
2017-07-07T16:51:51.416Z,26.7
2017-07-07T17:02:05.422Z,26.6
2017-07-07T17:12:21.148Z,26.1
2017-07-07T17:22:36.035Z,26.2
2017-07-07T17:32:49.987Z,26
2017-07-07T17:43:05.023Z,25.5
2017-07-07T17:53:19.193Z,25.4
2017-07-07T18:03:34.627Z,25.2
2017-07-07T18:13:48.559Z,25.3
2017-07-07T18:24:04.234Z,25.1
2017-07-07T18:34:18.692Z,25
2017-07-07T18:44:33.032Z,24.6
2017-07-07T18:54:47.499Z,24.6
2017-07-07T19:05:02.671Z,24.3
2017-07-07T19:15:17.769Z,24.1
2017-07-07T19:25:31.970Z,23.4
2017-07-07T19:35:46.877Z,23.2
2017-07-07T19:46:01.745Z,23.2
2017-07-07T19:56:17.109Z,22.8
2017-07-07T20:06:31.390Z,22.4
2017-07-07T20:16:45.953Z,22
2017-07-07T20:27:01.696Z,21.6
2017-07-07T20:37:17.176Z,21.2
2017-07-07T20:47:31.115Z,20.8
2017-07-07T20:57:45.601Z,20.5
2017-07-07T21:08:01.036Z,20.4
2017-07-07T21:18:14.864Z,20
2017-07-07T21:28:28.980Z,19.8
2017-07-07T21:38:44.537Z,19.6
2017-07-07T21:48:58.728Z,19.3
2017-07-07T21:59:12.729Z,19.1
2017-07-07T22:09:28.168Z,18.9
2017-07-07T22:19:42.759Z,18.9
2017-07-07T22:29:56.943Z,18.7
2017-07-07T22:40:11.141Z,18.4
2017-07-07T22:50:25.701Z,18.3
2017-07-07T23:00:40.520Z,18.2
2017-07-07T23:10:55.963Z,18.1
2017-07-07T23:21:11.745Z,17.9
2017-07-07T23:31:26.266Z,17.8
2017-07-07T23:41:40.339Z,17.7
2017-07-07T23:51:55.146Z,17.6
